Pooler, Georgia
Current Conditions -  °F | °C
As of 1:53 AM on Monday 24 Nov 2014 (Local Time) from KSAV Reporting Station
Overcast Overcast  
Wind Chill: 68°   Ceiling: 2600
Heat Index: 68°   Visibility: 10mi
Dew Point: 65°   Wind: 3mph
Humidity: 90%   Direction: 190°S
Pressure: 29.84"   Gusts: NA
Location:  32.12°N, 81.25°W
Report Text: KSAV 240653Z AUTO 19003KT 10SM FEW016 BKN026 OVC033 20/18 A2984 RMK AO2 SLP105 T02000183 TSNO $
Loading
Personal Weather Stations






























Interactive Weather Map New forecast layout! Learn more

10-Day Weather Forecast

Advertisements
Track Severe Weather on mobile